Terminal Aerodrome Forecast
Issued by NWS

Home | Current Version | Previous Version | Text Only | Print | Product List | Glossary On
Versions: 1 2 3 4 5 6 7 8 9 10 11 12 13 14 15 16
000
FTUS41 KBTV 060527
TAFMSS
TAF
KMSS 060527Z 0606/0706 00000KT P6SM SKC
     FM061300 22006KT P6SM SKC
     FM061800 23010G18KT P6SM FEW040 SCT250
     FM070300 21011KT P6SM BKN110=

USA.gov is the U.S. government's official web portal to all federal, state and local government web resources and services.